Time;durP1;ratioP1;P1;durP2;ratioP2;P2;SDS_P1;SDS_P2;PMS_P1;PMS_P2;Temp;Humidity;BMP_temperature;BMP_pressure;BME280_temperature;BME280_humidity;BME280_pressure;Samples;Min_cycle;Max_cycle;Signal;HPM_P1;HPM_P2
2022/01/30 00:00:43;;;;;;;1.10;1.00;;;7.60;99.90;;;;;;5004747;28;20747;-71
2022/01/30 00:03:09;;;;;;;0.73;0.60;;;7.60;99.90;;;;;;5023567;28;20299;-70
2022/01/30 00:05:35;;;;;;;1.33;1.23;;;7.80;99.90;;;;;;5027884;28;20804;-74
2022/01/30 00:08:01;;;;;;;0.80;0.80;;;7.80;99.90;;;;;;5028001;28;20198;-76
2022/01/30 00:10:27;;;;;;;0.73;0.73;;;7.80;99.90;;;;;;5026974;28;20178;-73
2022/01/30 00:12:56;;;;;;;0.90;0.90;;;7.70;99.90;;;;;;5009999;28;20280;-74
2022/01/30 00:15:35;;;;;;;1.43;1.20;;;7.70;99.90;;;;;;5027671;28;20477;-74
2022/01/30 00:20:38;;;;;;;0.93;0.90;;;7.80;99.90;;;;;;5031081;28;20457;-75
2022/01/30 00:25:53;;;;;;;1.00;0.87;;;7.70;99.90;;;;;;5027949;28;20482;-74
2022/01/30 00:28:21;;;;;;;1.00;0.80;;;7.70;99.90;;;;;;5027148;28;20448;-75
2022/01/30 00:30:48;;;;;;;1.13;1.00;;;7.80;99.90;;;;;;5027273;28;20424;-73
2022/01/30 00:33:13;;;;;;;1.07;0.97;;;7.90;99.90;;;;;;5027169;28;20712;-73
2022/01/30 00:35:39;;;;;;;1.03;0.93;;;7.80;99.90;;;;;;5010127;28;20426;-76
2022/01/30 00:38:11;;;;;;;1.43;1.00;;;8.00;99.90;;;;;;5026843;28;20190;-73
2022/01/30 00:40:37;;;;;;;0.90;0.80;;;8.00;99.90;;;;;;5030392;28;20203;-74
2022/01/30 00:43:04;;;;;;;1.13;1.03;;;8.00;99.90;;;;;;5030391;28;20444;-73
2022/01/30 00:45:30;;;;;;;0.90;0.70;;;8.20;99.90;;;;;;5013178;28;20427;-75
2022/01/30 00:47:56;;;;;;;1.80;1.17;;;8.10;99.90;;;;;;5030308;28;20459;-75
2022/01/30 00:50:22;;;;;;;1.60;0.80;;;8.20;99.90;;;;;;5030700;28;20192;-74
2022/01/30 00:52:53;;;;;;;0.90;0.90;;;8.30;99.90;;;;;;5030164;28;20284;-75
2022/01/30 00:55:19;;;;;;;1.60;1.33;;;8.30;99.90;;;;;;5030524;28;20500;-73
2022/01/30 00:57:44;;;;;;;1.10;0.90;;;8.40;99.90;;;;;;5030324;28;20429;-74
2022/01/30 01:00:11;;;;;;;0.80;0.80;;;8.30;99.90;;;;;;5030956;28;20414;-72
2022/01/30 01:02:37;;;;;;;1.10;1.00;;;8.20;99.90;;;;;;5030141;28;20174;-73
2022/01/30 01:05:05;;;;;;;1.23;0.97;;;8.20;99.90;;;;;;5030382;28;20487;-74
2022/01/30 01:07:33;;;;;;;1.20;1.07;;;8.10;99.90;;;;;;5030769;28;20202;-73
2022/01/30 01:10:07;;;;;;;0.90;0.80;;;8.10;99.90;;;;;;5013792;28;20409;-74
2022/01/30 01:12:52;;;;;;;2.07;1.10;;;8.20;99.90;;;;;;5031002;28;20405;-74
2022/01/30 01:26:00;;;;;;;2.30;1.10;;;8.20;99.90;;;;;;5029441;28;20426;-73
2022/01/30 01:28:26;;;;;;;2.30;1.40;;;8.30;99.90;;;;;;5011143;28;20201;-73
2022/01/30 01:30:53;;;;;;;1.93;1.40;;;8.10;99.90;;;;;;5029142;28;20503;-73
2022/01/30 01:33:20;;;;;;;1.20;1.10;;;8.10;99.90;;;;;;5030387;28;20526;-75
2022/01/30 01:35:46;;;;;;;1.37;1.00;;;8.20;99.90;;;;;;5030147;28;20466;-73
2022/01/30 01:38:14;;;;;;;2.20;1.13;;;8.20;99.90;;;;;;5012524;28;20421;-74
2022/01/30 01:40:45;;;;;;;1.20;1.10;;;8.20;99.90;;;;;;5029628;28;20175;-72
2022/01/30 01:43:10;;;;;;;2.10;1.30;;;8.10;99.90;;;;;;5029605;28;20475;-74
2022/01/30 01:45:39;;;;;;;1.10;0.93;;;8.30;99.90;;;;;;5029135;28;20497;-74
2022/01/30 01:48:13;;;;;;;1.13;1.03;;;8.50;99.90;;;;;;5029050;28;20197;-72
2022/01/30 01:50:43;;;;;;;1.33;1.20;;;8.40;99.90;;;;;;5029679;28;20411;-73
2022/01/30 01:53:12;;;;;;;1.20;1.10;;;8.30;99.90;;;;;;5030419;28;20449;-74
2022/01/30 01:55:39;;;;;;;1.20;1.10;;;8.30;99.90;;;;;;5029810;28;20520;-73
2022/01/30 01:58:05;;;;;;;1.20;1.07;;;8.40;99.90;;;;;;5029316;28;20432;-72
2022/01/30 02:00:32;;;;;;;1.43;1.20;;;8.30;99.90;;;;;;5029594;28;20431;-75
2022/01/30 02:02:58;;;;;;;1.20;1.10;;;8.30;99.90;;;;;;5012218;28;20191;-74
2022/01/30 02:05:27;;;;;;;1.37;1.07;;;8.30;99.90;;;;;;5029920;28;20428;-73
2022/01/30 02:10:36;;;;;;;2.83;1.10;;;8.30;99.90;;;;;;5029354;28;20509;-75
2022/01/30 02:13:38;;;;;;;1.00;0.90;;;8.40;99.90;;;;;;5029454;28;20205;-74
2022/01/30 02:24:30;;;;;;;1.13;0.90;;;8.30;99.90;;;;;;5028935;28;20460;-74
2022/01/30 02:26:56;;;;;;;1.47;1.10;;;8.20;99.90;;;;;;5030299;28;20405;-73
2022/01/30 02:29:22;;;;;;;2.40;1.60;;;8.20;99.90;;;;;;5011456;28;20825;-73
2022/01/30 02:31:47;;;;;;;1.40;1.30;;;8.10;99.90;;;;;;5029171;28;20280;-74
2022/01/30 02:34:13;;;;;;;2.30;1.40;;;8.20;99.90;;;;;;5028765;28;20429;-74
2022/01/30 02:36:45;;;;;;;1.37;1.27;;;8.30;99.90;;;;;;5010882;28;20189;-72
2022/01/30 02:39:11;;;;;;;1.20;1.10;;;8.20;99.90;;;;;;5028739;28;20587;-72
2022/01/30 02:41:38;;;;;;;2.00;0.97;;;8.20;99.90;;;;;;5028622;28;20429;-74
2022/01/30 02:44:13;;;;;;;1.90;1.50;;;8.10;99.90;;;;;;5028815;28;20203;-74
2022/01/30 02:46:43;;;;;;;1.27;1.13;;;8.10;99.90;;;;;;5011866;28;20450;-72
2022/01/30 02:49:42;;;;;;;2.13;1.43;;;8.10;99.90;;;;;;5029552;28;20896;-72
2022/01/30 02:52:02;;;;;;;1.40;1.30;;;8.00;99.90;;;;;;5027084;28;20463;-75
2022/01/30 02:54:29;;;;;;;1.50;1.40;;;8.00;99.90;;;;;;5029188;28;20825;-73
2022/01/30 02:56:56;;;;;;;1.87;1.13;;;8.10;99.90;;;;;;5029274;28;20418;-74
2022/01/30 02:59:22;;;;;;;1.70;1.13;;;8.20;99.90;;;;;;5012181;28;20903;-74
2022/01/30 03:01:48;;;;;;;1.30;1.20;;;8.10;99.90;;;;;;5029435;28;21294;-75
2022/01/30 03:04:13;;;;;;;1.87;1.27;;;8.20;99.90;;;;;;5029319;28;20432;-74
2022/01/30 03:06:39;;;;;;;1.80;1.43;;;8.20;99.90;;;;;;5029594;28;20178;-72
2022/01/30 03:09:07;;;;;;;3.43;1.60;;;8.40;99.90;;;;;;5013196;28;20202;-74
2022/01/30 03:11:33;;;;;;;2.80;1.73;;;8.60;99.90;;;;;;5015084;28;20171;-75
2022/01/30 03:13:59;;;;;;;1.80;1.70;;;8.40;99.90;;;;;;5043472;28;20540;-75
2022/01/30 03:16:25;;;;;;;2.13;1.73;;;8.50;99.90;;;;;;5040113;22;20515;-72
2022/01/30 03:18:51;;;;;;;2.80;1.77;;;8.60;99.90;;;;;;5043579;28;20451;-75
2022/01/30 03:21:17;;;;;;;2.83;1.50;;;8.40;99.90;;;;;;5043618;28;20908;-72
2022/01/30 03:23:43;;;;;;;2.83;1.90;;;8.50;99.90;;;;;;5025653;28;20182;-73
2022/01/30 03:26:10;;;;;;;2.13;1.57;;;8.40;99.90;;;;;;5043803;28;20674;-73
2022/01/30 03:28:38;;;;;;;1.50;1.30;;;8.50;99.90;;;;;;5043271;28;20199;-73
2022/01/30 03:31:06;;;;;;;3.10;2.53;;;8.50;99.90;;;;;;5043655;28;20793;-73
2022/01/30 03:33:33;;;;;;;16.07;9.80;;;8.50;99.90;;;;;;5025578;28;20611;-72
2022/01/30 03:35:59;;;;;;;7.70;4.83;;;8.60;99.90;;;;;;5043835;28;20963;-72
2022/01/30 03:38:25;;;;;;;8.83;4.40;;;8.60;99.90;;;;;;5043559;28;20428;-72
2022/01/30 03:40:52;;;;;;;3.43;2.07;;;8.70;99.90;;;;;;5043914;28;20507;-72
2022/01/30 03:43:18;;;;;;;1.97;1.50;;;8.70;99.90;;;;;;5042865;28;20423;-72
2022/01/30 03:45:43;;;;;;;1.90;1.50;;;8.60;99.90;;;;;;5043243;28;20441;-72
2022/01/30 03:48:09;;;;;;;3.57;1.43;;;8.60;99.90;;;;;;5043576;28;21042;-72
2022/01/30 03:50:35;;;;;;;3.47;1.40;;;8.50;99.90;;;;;;5043344;28;20182;-73
2022/01/30 03:53:00;;;;;;;3.93;2.13;;;8.60;99.90;;;;;;5043658;28;20211;-72
2022/01/30 03:55:26;;;;;;;3.43;1.70;;;8.60;99.90;;;;;;5043417;28;20617;-72
2022/01/30 03:57:52;;;;;;;1.50;1.40;;;8.60;99.90;;;;;;5043373;28;20178;-72
2022/01/30 04:00:18;;;;;;;3.07;1.50;;;8.50;99.90;;;;;;5043117;28;20274;-73
2022/01/30 04:02:44;;;;;;;4.10;1.80;;;8.60;99.90;;;;;;5043679;28;20457;-72
2022/01/30 04:05:10;;;;;;;1.97;1.63;;;8.60;99.90;;;;;;5043558;28;20513;-73
2022/01/30 04:07:36;;;;;;;2.23;1.50;;;8.50;99.90;;;;;;5043389;28;20207;-73
2022/01/30 04:10:04;;;;;;;3.53;1.60;;;8.60;99.90;;;;;;5042896;28;20182;-73
2022/01/30 04:12:30;;;;;;;5.93;1.90;;;8.60;99.90;;;;;;5043205;28;20448;-73
2022/01/30 04:14:56;;;;;;;2.77;1.57;;;8.60;99.90;;;;;;5045943;28;20419;-74
2022/01/30 04:17:22;;;;;;;1.90;1.40;;;8.60;99.90;;;;;;5029141;28;20440;-72
2022/01/30 04:19:49;;;;;;;2.37;1.63;;;8.60;99.90;;;;;;5046995;28;20425;-72
2022/01/30 04:22:15;;;;;;;2.80;2.20;;;8.70;99.90;;;;;;5047348;28;20494;-72
2022/01/30 04:24:41;;;;;;;4.10;2.03;;;8.60;99.90;;;;;;5046737;28;20493;-74
2022/01/30 04:27:07;;;;;;;5.97;2.73;;;8.60;99.90;;;;;;5047027;28;20238;-72
2022/01/30 04:29:32;;;;;;;4.67;2.47;;;8.60;99.90;;;;;;5047332;28;21046;-71
2022/01/30 04:31:59;;;;;;;4.20;2.60;;;8.60;99.90;;;;;;5046750;28;20178;-71
2022/01/30 04:34:26;;;;;;;2.90;2.70;;;8.70;99.90;;;;;;5047072;28;20669;-73
2022/01/30 04:37:04;;;;;;;7.23;3.20;;;8.70;99.90;;;;;;5046931;28;20426;-72
2022/01/30 04:53:19;;;;;;;7.10;2.97;;;8.40;99.90;;;;;;5046415;28;20390;-71
2022/01/30 04:58:24;;;;;;;7.60;3.83;;;8.30;99.90;;;;;;5046937;28;20418;-72
2022/01/30 05:08:16;;;;;;;6.37;4.20;;;8.10;99.90;;;;;;5046438;28;20467;-71
2022/01/30 05:10:42;;;;;;;8.00;3.63;;;8.10;99.90;;;;;;5046582;28;20420;-72
2022/01/30 05:13:12;;;;;;;6.70;3.30;;;8.20;99.90;;;;;;5046185;28;20423;-71
2022/01/30 05:15:38;;;;;;;7.70;3.57;;;8.10;99.90;;;;;;5027735;28;20577;-71
2022/01/30 05:18:03;;;;;;;9.20;3.40;;;8.20;99.90;;;;;;5046496;28;20431;-72
2022/01/30 05:20:30;;;;;;;6.77;3.60;;;8.20;99.90;;;;;;5046119;28;20514;-73
2022/01/30 05:22:57;;;;;;;5.50;3.53;;;8.10;99.90;;;;;;5045787;28;20190;-73
2022/01/30 05:25:23;;;;;;;8.10;3.87;;;8.10;99.90;;;;;;5028850;28;20471;-73
2022/01/30 05:27:49;;;;;;;6.63;3.80;;;8.10;99.90;;;;;;5046053;28;20452;-72
2022/01/30 05:30:15;;;;;;;9.03;3.63;;;8.10;99.90;;;;;;5028924;28;20440;-72
2022/01/30 05:32:41;;;;;;;9.30;4.40;;;8.20;99.90;;;;;;5046542;28;20411;-72
2022/01/30 05:35:07;;;;;;;8.20;3.90;;;8.00;99.90;;;;;;5045953;28;20558;-72
2022/01/30 05:37:37;;;;;;;8.30;4.37;;;7.90;99.90;;;;;;5045091;28;20431;-73
2022/01/30 05:40:04;;;;;;;10.33;4.27;;;8.00;99.90;;;;;;5045944;28;20509;-72
2022/01/30 05:42:30;;;;;;;9.83;3.90;;;8.00;99.90;;;;;;5045603;28;20430;-76
2022/01/30 05:47:34;;;;;;;9.03;3.90;;;8.10;99.90;;;;;;5045689;28;20460;-73
2022/01/30 05:50:00;;;;;;;9.13;4.00;;;8.00;99.90;;;;;;5045688;28;20172;-74
2022/01/30 05:52:26;;;;;;;9.07;3.23;;;8.10;99.90;;;;;;5045803;28;20414;-73
2022/01/30 05:54:51;;;;;;;8.03;4.17;;;8.10;99.90;;;;;;5045428;28;20558;-73
2022/01/30 05:57:17;;;;;;;7.07;3.93;;;8.20;99.90;;;;;;5045622;28;20599;-71
2022/01/30 05:59:43;;;;;;;9.57;4.70;;;8.20;99.90;;;;;;5045261;28;20185;-72
2022/01/30 06:02:08;;;;;;;16.23;4.77;;;8.20;99.90;;;;;;5045185;28;20190;-75
2022/01/30 06:04:34;;;;;;;6.90;4.23;;;8.20;99.90;;;;;;5045460;28;20562;-73
2022/01/30 06:07:01;;;;;;;7.90;4.57;;;8.10;99.90;;;;;;5045316;28;20289;-73
2022/01/30 06:09:27;;;;;;;9.63;4.57;;;8.10;99.90;;;;;;5044422;28;20185;-71
2022/01/30 06:11:52;;;;;;;6.10;4.20;;;8.10;99.90;;;;;;5045174;28;20448;-73
2022/01/30 06:14:22;;;;;;;8.90;3.60;;;8.10;99.90;;;;;;5045188;28;20412;-72
2022/01/30 06:16:53;;;;;;;10.10;4.23;;;8.10;99.90;;;;;;5044815;28;20459;-72
2022/01/30 06:19:19;;;;;;;13.30;5.20;;;8.10;99.90;;;;;;5045196;28;20417;-73
2022/01/30 06:21:45;;;;;;;8.50;3.90;;;8.10;99.90;;;;;;5045065;28;20510;-74
2022/01/30 06:24:11;;;;;;;6.80;4.13;;;8.10;99.90;;;;;;5044953;28;21482;-74
2022/01/30 06:26:37;;;;;;;7.50;4.10;;;8.10;99.90;;;;;;5044978;28;20458;-73
2022/01/30 06:29:03;;;;;;;9.80;3.60;;;8.10;99.90;;;;;;5026639;28;20209;-73
2022/01/30 06:31:29;;;;;;;7.57;3.50;;;7.90;99.90;;;;;;5044812;28;20263;-73
2022/01/30 06:33:54;;;;;;;9.47;3.70;;;7.80;99.90;;;;;;5044973;28;20553;-72
2022/01/30 06:36:20;;;;;;;6.43;3.50;;;7.80;99.90;;;;;;5043971;28;20214;-73
2022/01/30 06:38:47;;;;;;;8.97;4.00;;;7.70;99.90;;;;;;5044594;28;20174;-73
2022/01/30 06:41:13;;;;;;;13.50;3.33;;;7.70;99.90;;;;;;5044563;28;20419;-71
2022/01/30 06:43:38;;;;;;;8.60;3.40;;;7.70;99.90;;;;;;5043725;28;20436;-72
2022/01/30 06:46:04;;;;;;;6.80;3.40;;;7.70;99.90;;;;;;5043971;28;20435;-73
2022/01/30 06:48:30;;;;;;;6.70;3.47;;;7.60;99.90;;;;;;5044589;28;20254;-72
2022/01/30 06:50:56;;;;;;;8.00;3.77;;;7.50;99.90;;;;;;5044340;28;20180;-71
2022/01/30 06:53:23;;;;;;;6.47;3.60;;;7.50;99.90;;;;;;5044824;28;20588;-73
2022/01/30 06:55:49;;;;;;;9.97;4.10;;;7.40;99.90;;;;;;5043787;28;20194;-71
2022/01/30 06:58:14;;;;;;;11.07;4.27;;;7.40;99.90;;;;;;5044113;28;20777;-72
2022/01/30 07:00:41;;;;;;;7.90;4.10;;;7.30;99.90;;;;;;5044015;28;20184;-72
2022/01/30 07:03:06;;;;;;;7.70;3.67;;;7.30;99.90;;;;;;5026191;28;20434;-74
2022/01/30 07:05:32;;;;;;;8.50;3.30;;;7.30;99.90;;;;;;5044094;28;20486;-73
2022/01/30 07:07:58;;;;;;;5.70;3.10;;;7.20;99.90;;;;;;5043921;28;20662;-73
2022/01/30 07:10:24;;;;;;;9.40;4.33;;;7.20;99.90;;;;;;5044333;28;20169;-74
2022/01/30 07:12:50;;;;;;;8.17;4.50;;;7.20;99.90;;;;;;5043934;28;20191;-73
2022/01/30 07:15:15;;;;;;;4.50;2.87;;;7.40;99.90;;;;;;5043986;28;20805;-74
2022/01/30 07:17:42;;;;;;;8.77;4.00;;;7.20;99.90;;;;;;5043840;28;20189;-73
2022/01/30 07:20:09;;;;;;;9.90;3.40;;;7.40;99.90;;;;;;5044219;28;20677;-73
2022/01/30 07:22:35;;;;;;;11.53;4.10;;;7.40;99.90;;;;;;5044005;28;20414;-72
2022/01/30 07:25:02;;;;;;;5.27;3.33;;;7.30;99.90;;;;;;5043662;28;20414;-73
2022/01/30 07:27:28;;;;;;;7.10;3.67;;;7.30;99.90;;;;;;5043705;28;20465;-74
2022/01/30 07:29:54;;;;;;;8.40;4.00;;;7.20;99.90;;;;;;5043754;28;20969;-73
2022/01/30 07:32:20;;;;;;;11.00;4.30;;;7.20;99.90;;;;;;5043664;28;20508;-74
2022/01/30 07:34:49;;;;;;;10.80;4.07;;;7.20;99.90;;;;;;5043804;28;20265;-72
2022/01/30 07:37:15;;;;;;;8.93;3.53;;;7.20;99.90;;;;;;5044116;28;20570;-73
2022/01/30 07:39:42;;;;;;;6.97;4.03;;;7.30;99.90;;;;;;5043518;28;20428;-73
2022/01/30 07:42:08;;;;;;;9.80;4.20;;;7.20;99.90;;;;;;5043867;28;20404;-73
2022/01/30 07:44:33;;;;;;;8.27;3.90;;;7.30;99.90;;;;;;5043626;28;20460;-72
2022/01/30 07:46:59;;;;;;;14.00;5.53;;;7.30;99.90;;;;;;5043508;28;20253;-72
2022/01/30 07:49:25;;;;;;;9.03;4.43;;;7.40;99.90;;;;;;5045670;28;20286;-73
2022/01/30 07:51:50;;;;;;;11.47;4.63;;;7.30;99.90;;;;;;5047780;28;20701;-75
2022/01/30 07:54:16;;;;;;;12.07;5.33;;;7.30;99.90;;;;;;5047867;28;20185;-72
2022/01/30 07:56:41;;;;;;;11.60;4.93;;;7.40;99.90;;;;;;5047656;28;20202;-72
2022/01/30 07:59:07;;;;;;;11.80;5.00;;;7.50;99.90;;;;;;5047539;28;20184;-72
2022/01/30 08:01:33;;;;;;;8.30;4.57;;;7.50;99.90;;;;;;5047595;28;20300;-73
2022/01/30 08:04:00;;;;;;;8.57;5.07;;;7.50;99.90;;;;;;5047644;28;20196;-72
2022/01/30 08:06:26;;;;;;;7.93;4.70;;;7.40;99.90;;;;;;5047504;28;20702;-72
2022/01/30 08:08:52;;;;;;;15.77;5.60;;;7.40;99.90;;;;;;5047485;28;20501;-72
2022/01/30 08:11:17;;;;;;;12.30;4.80;;;7.30;99.90;;;;;;5046757;28;20576;-73
2022/01/30 08:13:43;;;;;;;11.97;5.70;;;7.20;99.90;;;;;;5047384;28;20188;-74
2022/01/30 08:16:08;;;;;;;11.17;4.40;;;7.20;99.90;;;;;;5046924;28;20223;-72
2022/01/30 08:18:37;;;;;;;8.70;4.20;;;7.30;99.90;;;;;;5047377;28;20398;-73
2022/01/30 08:21:04;;;;;;;11.30;3.67;;;7.20;99.90;;;;;;5047816;28;20190;-72
2022/01/30 08:23:31;;;;;;;10.17;4.87;;;7.30;99.90;;;;;;5047432;28;20939;-72
2022/01/30 08:25:57;;;;;;;11.73;4.30;;;7.30;99.90;;;;;;5047372;28;20429;-73
2022/01/30 08:28:23;;;;;;;11.00;3.90;;;7.30;99.90;;;;;;5047824;28;20466;-73
2022/01/30 08:30:48;;;;;;;11.67;4.77;;;7.30;99.90;;;;;;5047555;28;20171;-73
2022/01/30 08:33:16;;;;;;;10.97;3.40;;;7.40;99.90;;;;;;5047179;28;20185;-73
2022/01/30 08:35:41;;;;;;;10.40;3.80;;;7.40;99.90;;;;;;5028931;28;20217;-73
2022/01/30 08:38:07;;;;;;;9.83;3.53;;;7.40;99.90;;;;;;5047437;28;20506;-73
2022/01/30 08:40:33;;;;;;;12.80;4.30;;;7.40;99.90;;;;;;5048918;28;20179;-73
2022/01/30 08:42:58;;;;;;;9.40;4.37;;;7.30;99.90;;;;;;5051609;28;20559;-72
2022/01/30 08:45:24;;;;;;;8.43;4.10;;;7.40;99.90;;;;;;5052852;28;20202;-72
2022/01/30 08:47:51;;;;;;;9.53;3.80;;;7.30;99.90;;;;;;5053425;28;20205;-73
2022/01/30 08:50:19;;;;;;;11.10;3.90;;;7.30;99.90;;;;;;5050929;28;20410;-72
2022/01/30 08:52:46;;;;;;;12.97;4.50;;;7.20;99.90;;;;;;5048116;28;20780;-70
2022/01/30 08:55:12;;;;;;;13.57;5.30;;;7.20;99.90;;;;;;5047457;28;20427;-73
2022/01/30 08:57:38;;;;;;;10.83;3.70;;;7.30;99.90;;;;;;5047432;28;20926;-72
2022/01/30 09:00:07;;;;;;;8.70;3.60;;;7.40;99.90;;;;;;5046872;28;20504;-72
2022/01/30 09:02:33;;;;;;;11.17;3.63;;;7.50;99.90;;;;;;5045851;28;20541;-71
2022/01/30 09:04:58;;;;;;;8.90;3.70;;;7.40;99.90;;;;;;5047113;28;20534;-72
2022/01/30 09:07:24;;;;;;;8.40;4.10;;;7.40;99.90;;;;;;5046661;28;20200;-72
2022/01/30 09:09:49;;;;;;;11.40;3.87;;;7.40;99.90;;;;;;5046582;28;20210;-73
2022/01/30 09:12:15;;;;;;;10.90;4.40;;;7.50;99.90;;;;;;5046447;28;20174;-72
2022/01/30 09:14:42;;;;;;;11.47;4.20;;;7.50;99.90;;;;;;5046127;28;20189;-72
2022/01/30 09:17:16;;;;;;;13.50;3.33;;;7.40;99.90;;;;;;5076539;22;20308;-69
2022/01/30 09:19:44;;;;;;;12.83;4.50;;;7.40;99.90;;;;;;5046150;28;21378;-74
2022/01/30 09:22:11;;;;;;;11.90;4.90;;;7.30;99.90;;;;;;5047522;28;20426;-71
2022/01/30 09:24:38;;;;;;;6.60;3.50;;;7.30;99.90;;;;;;5048722;28;20438;-71
2022/01/30 09:27:04;;;;;;;14.50;5.07;;;7.30;99.90;;;;;;5035513;28;20884;-70
2022/01/30 09:29:31;;;;;;;6.17;3.70;;;7.30;99.90;;;;;;5036984;28;20466;-72
2022/01/30 09:31:57;;;;;;;8.30;3.90;;;7.30;99.90;;;;;;5046859;28;20418;-71
2022/01/30 09:34:23;;;;;;;7.83;4.20;;;7.40;99.90;;;;;;5046836;28;20861;-71
2022/01/30 09:36:48;;;;;;;6.77;3.27;;;7.60;99.90;;;;;;5049411;28;20504;-70
2022/01/30 09:39:14;;;;;;;9.23;4.30;;;7.50;99.90;;;;;;5046437;28;20188;-70
2022/01/30 09:41:42;;;;;;;12.00;4.83;;;7.50;99.90;;;;;;5036380;28;20645;-71
2022/01/30 09:44:09;;;;;;;12.20;4.20;;;7.40;99.90;;;;;;5046881;28;20195;-71
2022/01/30 09:46:39;;;;;;;8.73;4.33;;;7.50;99.90;;;;;;5039454;28;20448;-70
2022/01/30 09:49:06;;;;;;;11.50;4.30;;;7.70;99.90;;;;;;5046626;28;20979;-74
2022/01/30 09:51:34;;;;;;;8.77;4.07;;;8.00;99.90;;;;;;5046562;28;20899;-73
2022/01/30 09:54:01;;;;;;;17.30;4.47;;;8.00;99.90;;;;;;5047591;28;20406;-72
2022/01/30 09:56:27;;;;;;;9.10;4.90;;;8.00;99.90;;;;;;5037794;28;20520;-71
2022/01/30 09:58:53;;;;;;;13.20;4.50;;;8.00;99.90;;;;;;5037548;28;20913;-73
2022/01/30 10:01:18;;;;;;;9.70;4.50;;;8.20;99.90;;;;;;5046547;28;20415;-71
2022/01/30 10:03:47;;;;;;;10.97;4.60;;;8.20;99.90;;;;;;5047081;28;21402;-71
2022/01/30 10:06:19;;;;;;;12.63;5.67;;;8.10;99.90;;;;;;5046806;28;20343;-71
2022/01/30 10:08:47;;;;;;;8.60;4.33;;;8.20;99.90;;;;;;5033994;28;21508;-73
2022/01/30 10:14:04;;;;;;;7.77;3.87;;;8.00;99.90;;;;;;5047157;28;20424;-72
2022/01/30 10:16:42;;;;;;;12.00;5.17;;;8.00;99.90;;;;;;5046315;28;20459;-71
2022/01/30 10:19:23;;;;;;;10.23;4.40;;;8.10;99.90;;;;;;5036011;28;20523;-70
2022/01/30 10:22:06;;;;;;;13.47;3.93;;;8.20;99.90;;;;;;5046140;28;20412;-71
2022/01/30 10:24:37;;;;;;;8.40;4.30;;;8.40;99.90;;;;;;5045880;28;20935;-70
2022/01/30 10:27:18;;;;;;;14.03;5.10;;;8.30;99.90;;;;;;5045489;28;20441;-74
2022/01/30 10:29:44;;;;;;;10.37;4.10;;;8.20;99.90;;;;;;5045631;28;20412;-74
2022/01/30 10:32:10;;;;;;;8.40;3.67;;;8.10;99.90;;;;;;5045140;28;20968;-74
2022/01/30 10:34:40;;;;;;;11.63;4.40;;;8.40;99.90;;;;;;5045726;28;20225;-73
2022/01/30 10:37:25;;;;;;;13.67;4.07;;;8.40;99.90;;;;;;5045702;28;20437;-71
2022/01/30 10:39:53;;;;;;;11.10;3.30;;;8.30;99.90;;;;;;5036751;28;20478;-75
2022/01/30 10:42:30;;;;;;;13.50;4.03;;;8.10;99.90;;;;;;5032490;28;20452;-71
2022/01/30 10:44:56;;;;;;;10.30;3.87;;;7.90;99.90;;;;;;5046552;28;20503;-72
2022/01/30 10:47:22;;;;;;;12.57;3.77;;;7.90;99.90;;;;;;5047795;28;20535;-74
2022/01/30 10:49:48;;;;;;;7.03;3.30;;;7.90;99.90;;;;;;5045906;28;20224;-71
2022/01/30 10:52:14;;;;;;;12.17;3.90;;;7.90;99.90;;;;;;5045753;28;20419;-71
2022/01/30 10:54:40;;;;;;;15.17;4.73;;;8.00;99.90;;;;;;5045063;28;20196;-72
2022/01/30 10:57:11;;;;;;;13.63;4.53;;;8.30;99.90;;;;;;5044855;28;20424;-73
2022/01/30 10:59:42;;;;;;;10.40;3.43;;;8.50;99.90;;;;;;5033185;28;20546;-71
2022/01/30 11:02:17;;;;;;;10.70;3.50;;;8.50;99.90;;;;;;5044868;28;20848;-71
2022/01/30 11:04:46;;;;;;;12.83;4.20;;;8.80;99.90;;;;;;5045547;28;20853;-70
2022/01/30 11:07:16;;;;;;;14.43;3.97;;;8.80;99.90;;;;;;5044927;28;20444;-71
2022/01/30 11:09:55;;;;;;;17.47;3.40;;;8.60;99.90;;;;;;5045380;28;20424;-70
2022/01/30 11:12:31;;;;;;;6.50;3.13;;;8.50;99.90;;;;;;5045176;28;20401;-70
2022/01/30 11:15:15;;;;;;;15.83;5.20;;;8.80;99.90;;;;;;5045075;28;20404;-71
2022/01/30 11:17:41;;;;;;;14.73;4.57;;;8.80;99.90;;;;;;5044335;28;20848;-71
2022/01/30 11:20:08;;;;;;;16.20;5.00;;;9.30;99.90;;;;;;5044753;28;20925;-71
2022/01/30 11:22:36;;;;;;;6.50;3.40;;;9.30;99.90;;;;;;5036736;28;20423;-71
2022/01/30 11:25:04;;;;;;;13.40;4.23;;;9.90;99.90;;;;;;5042610;28;20432;-72
2022/01/30 11:27:31;;;;;;;8.57;3.80;;;10.20;99.90;;;;;;5040837;28;20449;-71
2022/01/30 11:29:59;;;;;;;11.73;4.47;;;9.90;99.90;;;;;;5033627;28;20512;-71
2022/01/30 11:32:26;;;;;;;7.70;3.47;;;9.20;99.90;;;;;;5043888;28;20417;-71
2022/01/30 11:34:52;;;;;;;6.67;3.13;;;9.00;99.90;;;;;;5044278;28;20431;-70
2022/01/30 11:37:19;;;;;;;10.77;3.60;;;10.00;99.90;;;;;;5044341;28;20433;-71
2022/01/30 11:39:49;;;;;;;12.10;4.07;;;10.80;99.90;;;;;;5043694;28;20419;-71
2022/01/30 11:42:21;;;;;;;11.63;4.10;;;11.90;99.90;;;;;;5042176;28;20425;-71
2022/01/30 11:45:03;;;;;;;7.63;3.63;;;11.90;99.10;;;;;;5044477;28;20420;-71
2022/01/30 11:47:42;;;;;;;10.23;4.10;;;12.10;98.50;;;;;;5043825;28;20472;-71
2022/01/30 11:50:08;;;;;;;11.60;4.17;;;12.40;98.40;;;;;;5044131;28;20772;-73
2022/01/30 11:52:49;;;;;;;12.60;3.43;;;12.30;98.00;;;;;;5037706;28;20420;-73
2022/01/30 11:55:42;;;;;;;8.87;3.57;;;12.70;97.70;;;;;;5044166;28;20449;-71
2022/01/30 11:58:27;;;;;;;10.53;4.30;;;12.60;97.20;;;;;;5044232;28;20405;-74
2022/01/30 12:00:53;;;;;;;10.33;3.60;;;13.10;96.70;;;;;;5043962;28;20988;-70
2022/01/30 12:03:27;;;;;;;10.60;3.73;;;13.40;95.70;;;;;;5043482;28;20514;-69
2022/01/30 12:05:55;;;;;;;7.83;3.23;;;12.80;95.80;;;;;;5044748;28;20196;-71
2022/01/30 12:08:44;;;;;;;7.07;3.67;;;12.20;96.40;;;;;;5044401;28;20459;-71
2022/01/30 12:11:37;;;;;;;5.80;3.00;;;11.90;97.20;;;;;;5030877;28;20430;-71
2022/01/30 12:14:06;;;;;;;7.20;3.43;;;11.20;97.90;;;;;;5044226;28;20437;-71
2022/01/30 12:16:46;;;;;;;6.43;3.30;;;10.50;98.50;;;;;;5043722;28;20456;-71
2022/01/30 12:19:41;;;;;;;10.10;3.50;;;11.00;98.60;;;;;;5030504;28;20520;-71
2022/01/30 12:22:16;;;;;;;10.13;3.70;;;11.50;97.70;;;;;;5014309;28;20512;-71
2022/01/30 12:24:43;;;;;;;7.63;4.00;;;11.40;97.40;;;;;;5044454;28;20405;-71
2022/01/30 12:27:09;;;;;;;5.40;3.23;;;10.70;98.30;;;;;;5044998;28;20429;-71
2022/01/30 12:29:46;;;;;;;10.60;4.00;;;10.70;99.30;;;;;;5045422;28;20610;-70
2022/01/30 12:32:23;;;;;;;7.27;3.80;;;11.00;98.80;;;;;;5043581;28;20177;-70
2022/01/30 12:35:01;;;;;;;11.80;4.03;;;11.30;98.70;;;;;;5044699;28;20405;-71
2022/01/30 12:37:31;;;;;;;9.13;3.30;;;12.10;97.40;;;;;;5047327;28;20485;-71
2022/01/30 12:40:00;;;;;;;9.77;5.30;;;11.80;97.50;;;;;;5047160;28;20423;-69
2022/01/30 12:42:30;;;;;;;9.03;5.10;;;12.30;96.60;;;;;;5047246;28;20563;-71
2022/01/30 12:45:00;;;;;;;7.20;3.47;;;12.50;96.20;;;;;;5047682;28;20496;-72
2022/01/30 12:47:26;;;;;;;12.53;4.50;;;13.00;94.90;;;;;;5046838;28;20435;-71
2022/01/30 12:49:56;;;;;;;7.33;3.40;;;15.00;93.80;;;;;;5047146;28;21339;-72
2022/01/30 12:54:50;;;;;;;7.77;3.20;;;16.40;90.40;;;;;;5047435;28;20495;-68
2022/01/30 12:57:19;;;;;;;6.23;3.50;;;16.40;88.10;;;;;;5046108;28;20191;-70
2022/01/30 12:59:59;;;;;;;8.20;3.40;;;16.20;86.40;;;;;;5046247;28;20447;-72
2022/01/30 13:02:29;;;;;;;8.10;3.47;;;16.00;84.80;;;;;;5046641;28;20655;-73
2022/01/30 13:04:59;;;;;;;7.50;3.50;;;16.30;86.70;;;;;;5047229;28;20416;-70
2022/01/30 13:07:24;;;;;;;8.07;3.67;;;16.10;82.50;;;;;;5037706;28;20437;-73
2022/01/30 13:10:09;;;;;;;7.80;3.33;;;15.80;83.30;;;;;;5047164;28;20796;-72
2022/01/30 13:12:35;;;;;;;5.43;3.17;;;16.30;83.20;;;;;;5026283;28;20207;-70
2022/01/30 13:15:12;;;;;;;10.00;3.80;;;14.60;85.70;;;;;;5046844;28;20423;-71
2022/01/30 13:17:39;;;;;;;9.53;4.23;;;13.70;90.00;;;;;;5046663;28;20550;-70
2022/01/30 13:20:06;;;;;;;8.33;3.57;;;12.90;90.50;;;;;;5051487;28;20523;-70
2022/01/30 13:22:34;;;;;;;8.57;4.00;;;12.70;90.80;;;;;;5051071;28;20683;-71
2022/01/30 13:25:03;;;;;;;10.57;3.23;;;12.60;90.90;;;;;;5049250;28;20431;-71
2022/01/30 13:27:29;;;;;;;8.37;4.03;;;12.60;90.90;;;;;;5034357;28;20525;-74
2022/01/30 13:29:55;;;;;;;9.80;3.93;;;12.90;91.40;;;;;;5038616;28;20424;-73
2022/01/30 13:32:25;;;;;;;10.23;3.40;;;12.50;91.30;;;;;;5051345;28;20418;-71
2022/01/30 13:34:51;;;;;;;7.63;3.30;;;12.40;91.60;;;;;;5053090;28;20411;-71
2022/01/30 13:37:19;;;;;;;8.30;3.53;;;12.10;91.40;;;;;;5051914;28;20487;-70
2022/01/30 13:48:24;;;;;;;10.60;3.77;;;10.10;94.70;;;;;;5051572;28;20471;-71
2022/01/30 13:50:54;;;;;;;12.20;4.23;;;9.80;95.30;;;;;;4935059;29;21021;-70
2022/01/30 13:53:19;;;;;;;8.93;4.10;;;9.80;96.90;;;;;;5035742;28;20425;-71
2022/01/30 13:55:51;;;;;;;12.20;3.67;;;9.70;96.30;;;;;;5051649;28;20953;-69
2022/01/30 13:58:18;;;;;;;18.37;7.57;;;9.30;96.90;;;;;;5051589;28;20189;-70
2022/01/30 14:00:44;;;;;;;50.87;31.83;;;9.20;97.50;;;;;;5044147;28;20433;-72
2022/01/30 14:03:10;;;;;;;26.80;17.43;;;9.30;98.00;;;;;;5033573;28;20941;-70
2022/01/30 14:05:39;;;;;;;12.20;5.70;;;9.40;97.50;;;;;;5051611;28;20198;-71